FACT/CPT METAR and TAF weather

Enter ICAO airport designator
Station Type Date Time Source
FACT METAR 2022/01/19 20:00 UTC NOAA

FACT 192000Z 22013KT CAVOK 18/15 Q1015 NOSIG


Station Type Date Time Source
FACT Decoded METAR 2022/01/19 20:00 UTC NOAA

Cape Town, Cape Town International Airport, South Africa (FACT) 33-59S 018-36E 0M
Jan 19, 2022 - 03:00 PM EST / 2022.01.19 2000 UTC
Wind: from the SW (220 degrees) at 15 MPH (13 KT):0
Visibility: greater than 7 mile(s):0
Temperature: 64 F (18 C)
Dew Point: 59 F (15 C)
Relative Humidity: 82%
Pressure (altimeter): 29.97 in. Hg (1015 hPa)
ob: FACT 192000Z 22013KT CAVOK 18/15 Q1015 NOSIG
cycle: 20

Station Type Date Time Source
FACT TAF 2022/01/19 18:12 UTC NOAA

TAF FACT 191600Z 1918/2024 18015KT CAVOK TX26/2012Z TN14/2003Z
BECMG 1919/1921 22005KT
BECMG 2012/2014 18015KT

Example: see airport list